Cooksville, Illinois
Current Conditions -  °F | °C
As of 2:56 AM on Sunday 21 Dec 2014 (Local Time) from KBMI Reporting Station
Overcast Overcast  
Wind Chill: -4°   Ceiling: 3300
Heat Index:   Visibility: 7mi
Dew Point: -1°   Wind: 9mph
Humidity: 92%   Direction: 160°SSE
Pressure: 30.23"   Gusts: NA
Location:  40.54°N, 88.72°W
Report Text: KBMI 210856Z AUTO 16008KT 7SM OVC033 00/M01 A3023 RMK AO2 58004 T00001011 SLP251
Loading
Personal Weather Stations






























Interactive Weather Map New forecast layout! Learn more

10-Day Weather Forecast

Advertisements
Track Severe Weather on mobile